TimeMDT,TemperatureF,Dew PointF,Humidity,Sea Level PressureIn,VisibilityMPH,Wind Direction,Wind SpeedMPH,Gust SpeedMPH,PrecipitationIn,Events,Conditions,WindDirDegrees,DateUTC
12:56 AM,63.0,52.0,67,29.92,10.0,West,5.8,-,N/A,,Clear,270,2013-07-28 06:56:00
1:56 AM,62.1,52.0,70,29.91,10.0,West,6.9,-,N/A,,Clear,270,2013-07-28 07:56:00
2:56 AM,61.0,51.1,70,29.91,10.0,West,5.8,-,N/A,,Clear,270,2013-07-28 08:56:00
3:56 AM,59.0,51.1,75,29.92,10.0,WSW,5.8,-,N/A,,Clear,250,2013-07-28 09:56:00
4:56 AM,59.0,50.0,72,29.92,10.0,WSW,5.8,-,N/A,,Clear,250,2013-07-28 10:56:00
5:56 AM,57.9,50.0,75,29.94,10.0,West,3.5,-,N/A,,Mostly Cloudy,270,2013-07-28 11:56:00
6:56 AM,57.9,48.9,72,29.94,10.0,West,4.6,-,N/A,,Clear,260,2013-07-28 12:56:00
7:56 AM,59.0,50.0,72,29.96,10.0,Calm,Calm,-,N/A,,Clear,0,2013-07-28 13:56:00
8:56 AM,62.1,50.0,65,29.97,10.0,Calm,Calm,-,N/A,,Overcast,0,2013-07-28 14:56:00
9:56 AM,63.0,50.0,63,29.97,10.0,Variable,3.5,-,N/A,,Partly Cloudy,0,2013-07-28 15:56:00
10:56 AM,66.9,50.0,54,29.97,10.0,Calm,Calm,-,N/A,,Partly Cloudy,0,2013-07-28 16:56:00
11:56 AM,69.1,50.0,51,29.96,10.0,Variable,4.6,-,N/A,,Clear,0,2013-07-28 17:56:00
12:56 PM,71.1,50.0,47,29.96,10.0,Variable,5.8,-,N/A,,Mostly Cloudy,0,2013-07-28 18:56:00
1:56 PM,73.9,51.1,45,29.94,10.0,Variable,3.5,-,N/A,,Scattered Clouds,0,2013-07-28 19:56:00
2:56 PM,75.9,51.1,42,29.91,10.0,North,11.5,16.1,N/A,,Partly Cloudy,350,2013-07-28 20:56:00
3:56 PM,75.9,50.0,40,29.89,10.0,Variable,5.8,-,N/A,,Clear,0,2013-07-28 21:56:00
4:56 PM,79.0,48.9,35,29.88,10.0,NE,9.2,-,N/A,,Scattered Clouds,40,2013-07-28 22:56:00
5:56 PM,78.1,48.0,35,29.88,10.0,NE,9.2,-,N/A,,Partly Cloudy,40,2013-07-28 23:56:00
6:56 PM,77.0,48.0,36,29.88,10.0,NNE,11.5,-,N/A,,Clear,30,2013-07-29 00:56:00
7:56 PM,75.0,46.9,37,29.90,10.0,North,12.7,-,N/A,,Clear,10,2013-07-29 01:56:00
8:56 PM,71.1,48.0,44,29.91,10.0,NE,9.2,-,N/A,,Clear,40,2013-07-29 02:56:00
9:56 PM,64.9,48.9,56,29.93,10.0,NE,6.9,-,N/A,,Clear,50,2013-07-29 03:56:00
10:56 PM,64.9,50.0,58,29.92,10.0,NE,3.5,-,N/A,,Scattered Clouds,40,2013-07-29 04:56:00
11:56 PM,64.0,51.1,63,29.95,10.0,NNW,11.5,17.3,N/A,,Mostly Cloudy,340,2013-07-29 05:56:00